sensor_id;sensor_type;location;lat;lon;timestamp;P1;durP1;ratioP1;P2;durP2;ratioP2
35891;SDS011;21993;42.672;23.296;2023-11-19T00:01:55;3.40;;;3.17;;
35891;SDS011;21993;42.672;23.296;2023-11-19T00:04:21;3.57;;;3.20;;
35891;SDS011;21993;42.672;23.296;2023-11-19T00:06:47;3.57;;;3.27;;
35891;SDS011;21993;42.672;23.296;2023-11-19T00:09:13;3.40;;;3.10;;
35891;SDS011;21993;42.672;23.296;2023-11-19T00:11:40;3.60;;;3.03;;
35891;SDS011;21993;42.672;23.296;2023-11-19T00:14:05;3.17;;;2.70;;
35891;SDS011;21993;42.672;23.296;2023-11-19T00:16:33;3.10;;;2.80;;
35891;SDS011;21993;42.672;23.296;2023-11-19T00:18:59;2.83;;;2.63;;
35891;SDS011;21993;42.672;23.296;2023-11-19T00:21:24;3.47;;;2.93;;
35891;SDS011;21993;42.672;23.296;2023-11-19T00:23:53;2.87;;;2.67;;
35891;SDS011;21993;42.672;23.296;2023-11-19T00:26:19;3.63;;;3.27;;
35891;SDS011;21993;42.672;23.296;2023-11-19T00:28:44;3.30;;;3.00;;
35891;SDS011;21993;42.672;23.296;2023-11-19T00:31:10;2.90;;;2.70;;
35891;SDS011;21993;42.672;23.296;2023-11-19T00:33:35;3.60;;;3.03;;
35891;SDS011;21993;42.672;23.296;2023-11-19T00:36:02;3.73;;;3.43;;
35891;SDS011;21993;42.672;23.296;2023-11-19T00:38:28;3.37;;;3.07;;
35891;SDS011;21993;42.672;23.296;2023-11-19T00:40:53;3.47;;;3.10;;
35891;SDS011;21993;42.672;23.296;2023-11-19T00:43:19;3.30;;;3.03;;
35891;SDS011;21993;42.672;23.296;2023-11-19T00:45:47;4.80;;;3.00;;
35891;SDS011;21993;42.672;23.296;2023-11-19T00:48:15;3.23;;;3.03;;
35891;SDS011;21993;42.672;23.296;2023-11-19T00:50:41;3.30;;;2.97;;
35891;SDS011;21993;42.672;23.296;2023-11-19T00:53:10;3.67;;;3.30;;
35891;SDS011;21993;42.672;23.296;2023-11-19T00:55:35;3.57;;;3.30;;
35891;SDS011;21993;42.672;23.296;2023-11-19T00:58:01;3.40;;;3.10;;
35891;SDS011;21993;42.672;23.296;2023-11-19T01:00:28;4.20;;;3.67;;
35891;SDS011;21993;42.672;23.296;2023-11-19T01:02:53;3.40;;;2.80;;
35891;SDS011;21993;42.672;23.296;2023-11-19T01:05:20;4.90;;;3.00;;
35891;SDS011;21993;42.672;23.296;2023-11-19T01:07:47;3.93;;;3.47;;
35891;SDS011;21993;42.672;23.296;2023-11-19T01:10:13;3.23;;;2.93;;
35891;SDS011;21993;42.672;23.296;2023-11-19T01:12:38;3.97;;;3.33;;
35891;SDS011;21993;42.672;23.296;2023-11-19T01:15:05;3.27;;;2.97;;
35891;SDS011;21993;42.672;23.296;2023-11-19T01:17:31;3.40;;;3.10;;
35891;SDS011;21993;42.672;23.296;2023-11-19T01:19:57;3.13;;;2.63;;
35891;SDS011;21993;42.672;23.296;2023-11-19T01:22:22;3.43;;;3.13;;
35891;SDS011;21993;42.672;23.296;2023-11-19T01:24:48;3.07;;;2.87;;
35891;SDS011;21993;42.672;23.296;2023-11-19T01:27:13;3.17;;;2.87;;
35891;SDS011;21993;42.672;23.296;2023-11-19T01:29:39;3.20;;;3.00;;
35891;SDS011;21993;42.672;23.296;2023-11-19T01:32:05;3.00;;;2.80;;
35891;SDS011;21993;42.672;23.296;2023-11-19T01:34:30;3.50;;;3.20;;
35891;SDS011;21993;42.672;23.296;2023-11-19T01:36:56;3.50;;;3.20;;
35891;SDS011;21993;42.672;23.296;2023-11-19T01:39:21;3.33;;;3.00;;
35891;SDS011;21993;42.672;23.296;2023-11-19T01:41:47;3.43;;;3.10;;
35891;SDS011;21993;42.672;23.296;2023-11-19T01:44:13;3.63;;;2.70;;
35891;SDS011;21993;42.672;23.296;2023-11-19T01:46:40;3.20;;;3.00;;
35891;SDS011;21993;42.672;23.296;2023-11-19T01:49:06;3.87;;;2.70;;
35891;SDS011;21993;42.672;23.296;2023-11-19T01:51:32;3.27;;;2.80;;
35891;SDS011;21993;42.672;23.296;2023-11-19T01:53:58;3.37;;;3.10;;
35891;SDS011;21993;42.672;23.296;2023-11-19T01:56:24;3.30;;;2.80;;
35891;SDS011;21993;42.672;23.296;2023-11-19T01:58:51;2.80;;;2.60;;
35891;SDS011;21993;42.672;23.296;2023-11-19T02:01:19;3.40;;;2.70;;
35891;SDS011;21993;42.672;23.296;2023-11-19T02:03:44;3.67;;;3.37;;
35891;SDS011;21993;42.672;23.296;2023-11-19T02:06:12;3.53;;;3.10;;
35891;SDS011;21993;42.672;23.296;2023-11-19T02:08:38;2.60;;;2.40;;
35891;SDS011;21993;42.672;23.296;2023-11-19T02:11:04;2.77;;;2.57;;
35891;SDS011;21993;42.672;23.296;2023-11-19T02:13:31;3.43;;;3.13;;
35891;SDS011;21993;42.672;23.296;2023-11-19T02:15:57;3.37;;;3.07;;
35891;SDS011;21993;42.672;23.296;2023-11-19T02:18:25;3.20;;;2.90;;
35891;SDS011;21993;42.672;23.296;2023-11-19T02:20:57;2.83;;;2.63;;
35891;SDS011;21993;42.672;23.296;2023-11-19T02:23:25;3.03;;;2.83;;
35891;SDS011;21993;42.672;23.296;2023-11-19T02:28:31;3.17;;;2.60;;
35891;SDS011;21993;42.672;23.296;2023-11-19T02:30:58;3.00;;;2.70;;
35891;SDS011;21993;42.672;23.296;2023-11-19T02:33:23;2.77;;;2.57;;
35891;SDS011;21993;42.672;23.296;2023-11-19T02:35:50;3.00;;;2.80;;
35891;SDS011;21993;42.672;23.296;2023-11-19T02:38:16;3.50;;;3.07;;
35891;SDS011;21993;42.672;23.296;2023-11-19T02:40:42;2.70;;;2.50;;
35891;SDS011;21993;42.672;23.296;2023-11-19T02:43:07;3.17;;;2.87;;
35891;SDS011;21993;42.672;23.296;2023-11-19T02:45:33;3.57;;;2.70;;
35891;SDS011;21993;42.672;23.296;2023-11-19T02:47:59;2.73;;;2.53;;
35891;SDS011;21993;42.672;23.296;2023-11-19T02:50:26;3.07;;;2.87;;
35891;SDS011;21993;42.672;23.296;2023-11-19T02:52:54;3.40;;;2.80;;
35891;SDS011;21993;42.672;23.296;2023-11-19T02:55:24;3.33;;;2.90;;
35891;SDS011;21993;42.672;23.296;2023-11-19T02:57:50;5.40;;;3.17;;
35891;SDS011;21993;42.672;23.296;2023-11-19T03:00:18;3.40;;;2.87;;
35891;SDS011;21993;42.672;23.296;2023-11-19T03:02:49;3.30;;;3.00;;
35891;SDS011;21993;42.672;23.296;2023-11-19T03:05:25;3.47;;;2.90;;
35891;SDS011;21993;42.672;23.296;2023-11-19T03:07:55;2.60;;;2.40;;
35891;SDS011;21993;42.672;23.296;2023-11-19T03:10:21;2.60;;;2.40;;
35891;SDS011;21993;42.672;23.296;2023-11-19T03:12:46;2.80;;;2.50;;
35891;SDS011;21993;42.672;23.296;2023-11-19T03:15:12;2.87;;;2.67;;
35891;SDS011;21993;42.672;23.296;2023-11-19T03:17:44;3.37;;;2.80;;
35891;SDS011;21993;42.672;23.296;2023-11-19T03:20:10;3.20;;;2.50;;
35891;SDS011;21993;42.672;23.296;2023-11-19T03:22:40;3.20;;;2.90;;
35891;SDS011;21993;42.672;23.296;2023-11-19T03:25:07;3.20;;;2.93;;
35891;SDS011;21993;42.672;23.296;2023-11-19T03:27:39;3.03;;;2.80;;
35891;SDS011;21993;42.672;23.296;2023-11-19T03:30:08;2.90;;;2.70;;
35891;SDS011;21993;42.672;23.296;2023-11-19T03:32:35;2.73;;;2.53;;
35891;SDS011;21993;42.672;23.296;2023-11-19T03:35:01;2.67;;;2.37;;
35891;SDS011;21993;42.672;23.296;2023-11-19T03:37:29;2.93;;;2.67;;
35891;SDS011;21993;42.672;23.296;2023-11-19T03:39:56;3.00;;;2.80;;
35891;SDS011;21993;42.672;23.296;2023-11-19T03:42:27;3.83;;;2.70;;
35891;SDS011;21993;42.672;23.296;2023-11-19T03:44:54;3.17;;;2.87;;
35891;SDS011;21993;42.672;23.296;2023-11-19T03:47:21;3.97;;;3.53;;
35891;SDS011;21993;42.672;23.296;2023-11-19T03:49:47;2.93;;;2.63;;
35891;SDS011;21993;42.672;23.296;2023-11-19T03:52:14;3.13;;;2.90;;
35891;SDS011;21993;42.672;23.296;2023-11-19T03:54:39;2.80;;;2.60;;
35891;SDS011;21993;42.672;23.296;2023-11-19T03:57:04;3.60;;;3.30;;
35891;SDS011;21993;42.672;23.296;2023-11-19T03:59:30;3.57;;;3.20;;
35891;SDS011;21993;42.672;23.296;2023-11-19T04:01:56;3.63;;;3.30;;
35891;SDS011;21993;42.672;23.296;2023-11-19T04:04:25;3.83;;;3.53;;
35891;SDS011;21993;42.672;23.296;2023-11-19T04:06:51;4.23;;;3.30;;
35891;SDS011;21993;42.672;23.296;2023-11-19T04:09:16;4.67;;;2.93;;
35891;SDS011;21993;42.672;23.296;2023-11-19T04:11:42;3.40;;;3.10;;
35891;SDS011;21993;42.672;23.296;2023-11-19T04:14:07;5.30;;;2.70;;
35891;SDS011;21993;42.672;23.296;2023-11-19T04:16:33;3.30;;;3.00;;
35891;SDS011;21993;42.672;23.296;2023-11-19T04:18:58;3.23;;;2.93;;
35891;SDS011;21993;42.672;23.296;2023-11-19T04:21:24;2.93;;;2.73;;
35891;SDS011;21993;42.672;23.296;2023-11-19T04:23:49;2.87;;;2.67;;
35891;SDS011;21993;42.672;23.296;2023-11-19T04:26:15;3.50;;;3.17;;
35891;SDS011;21993;42.672;23.296;2023-11-19T04:28:40;3.30;;;3.00;;
35891;SDS011;21993;42.672;23.296;2023-11-19T04:31:06;5.43;;;3.30;;
35891;SDS011;21993;42.672;23.296;2023-11-19T04:33:31;3.43;;;3.13;;
35891;SDS011;21993;42.672;23.296;2023-11-19T04:35:57;4.27;;;3.30;;
35891;SDS011;21993;42.672;23.296;2023-11-19T04:38:22;3.47;;;3.17;;
35891;SDS011;21993;42.672;23.296;2023-11-19T04:40:48;3.60;;;2.83;;
35891;SDS011;21993;42.672;23.296;2023-11-19T04:43:13;3.17;;;2.87;;
35891;SDS011;21993;42.672;23.296;2023-11-19T04:45:40;3.83;;;3.20;;
35891;SDS011;21993;42.672;23.296;2023-11-19T04:48:06;3.47;;;3.17;;
35891;SDS011;21993;42.672;23.296;2023-11-19T04:50:31;4.73;;;3.10;;
35891;SDS011;21993;42.672;23.296;2023-11-19T04:52:57;3.87;;;3.07;;
35891;SDS011;21993;42.672;23.296;2023-11-19T04:55:22;3.50;;;3.20;;
35891;SDS011;21993;42.672;23.296;2023-11-19T04:57:47;4.77;;;2.87;;
35891;SDS011;21993;42.672;23.296;2023-11-19T05:00:13;2.90;;;2.70;;
35891;SDS011;21993;42.672;23.296;2023-11-19T05:02:39;3.47;;;3.03;;
35891;SDS011;21993;42.672;23.296;2023-11-19T05:05:04;3.70;;;3.20;;
35891;SDS011;21993;42.672;23.296;2023-11-19T05:07:30;2.80;;;2.57;;
35891;SDS011;21993;42.672;23.296;2023-11-19T05:09:56;3.93;;;3.27;;
35891;SDS011;21993;42.672;23.296;2023-11-19T05:12:22;3.10;;;2.80;;
35891;SDS011;21993;42.672;23.296;2023-11-19T05:14:48;3.60;;;3.27;;
35891;SDS011;21993;42.672;23.296;2023-11-19T05:17:18;3.23;;;2.70;;
35891;SDS011;21993;42.672;23.296;2023-11-19T05:19:44;3.07;;;2.87;;
35891;SDS011;21993;42.672;23.296;2023-11-19T05:22:10;3.30;;;3.00;;
35891;SDS011;21993;42.672;23.296;2023-11-19T05:24:35;4.50;;;2.90;;
35891;SDS011;21993;42.672;23.296;2023-11-19T05:27:01;3.43;;;2.83;;
35891;SDS011;21993;42.672;23.296;2023-11-19T05:29:26;3.33;;;2.90;;
35891;SDS011;21993;42.672;23.296;2023-11-19T05:31:53;3.33;;;2.83;;
35891;SDS011;21993;42.672;23.296;2023-11-19T05:34:20;2.60;;;2.40;;
35891;SDS011;21993;42.672;23.296;2023-11-19T05:36:46;3.93;;;3.23;;
35891;SDS011;21993;42.672;23.296;2023-11-19T05:39:12;2.67;;;2.47;;
35891;SDS011;21993;42.672;23.296;2023-11-19T05:41:38;3.20;;;2.90;;
35891;SDS011;21993;42.672;23.296;2023-11-19T05:44:04;5.07;;;3.17;;
35891;SDS011;21993;42.672;23.296;2023-11-19T05:46:29;3.20;;;2.90;;
35891;SDS011;21993;42.672;23.296;2023-11-19T05:48:55;3.53;;;3.23;;
35891;SDS011;21993;42.672;23.296;2023-11-19T05:51:20;3.10;;;2.80;;
35891;SDS011;21993;42.672;23.296;2023-11-19T05:53:46;3.40;;;3.10;;
35891;SDS011;21993;42.672;23.296;2023-11-19T05:56:11;5.80;;;3.10;;
35891;SDS011;21993;42.672;23.296;2023-11-19T05:58:37;3.13;;;2.93;;
35891;SDS011;21993;42.672;23.296;2023-11-19T06:01:04;3.33;;;3.03;;
35891;SDS011;21993;42.672;23.296;2023-11-19T06:03:32;3.50;;;3.10;;
35891;SDS011;21993;42.672;23.296;2023-11-19T06:05:58;3.70;;;2.90;;
35891;SDS011;21993;42.672;23.296;2023-11-19T06:08:23;3.87;;;3.23;;
35891;SDS011;21993;42.672;23.296;2023-11-19T06:10:49;3.67;;;3.17;;
35891;SDS011;21993;42.672;23.296;2023-11-19T06:13:16;3.73;;;3.37;;
35891;SDS011;21993;42.672;23.296;2023-11-19T06:15:42;3.70;;;3.20;;
35891;SDS011;21993;42.672;23.296;2023-11-19T06:18:08;3.30;;;3.00;;
35891;SDS011;21993;42.672;23.296;2023-11-19T06:20:33;4.37;;;3.40;;
35891;SDS011;21993;42.672;23.296;2023-11-19T06:22:59;3.70;;;3.40;;
35891;SDS011;21993;42.672;23.296;2023-11-19T06:25:25;4.37;;;3.27;;
35891;SDS011;21993;42.672;23.296;2023-11-19T06:27:51;3.20;;;2.90;;
35891;SDS011;21993;42.672;23.296;2023-11-19T06:30:17;3.10;;;2.80;;
35891;SDS011;21993;42.672;23.296;2023-11-19T06:32:43;6.33;;;3.20;;
35891;SDS011;21993;42.672;23.296;2023-11-19T06:35:08;3.23;;;2.93;;
35891;SDS011;21993;42.672;23.296;2023-11-19T06:37:35;3.77;;;3.30;;
35891;SDS011;21993;42.672;23.296;2023-11-19T06:40:01;4.63;;;3.20;;
35891;SDS011;21993;42.672;23.296;2023-11-19T06:42:27;3.97;;;3.57;;
35891;SDS011;21993;42.672;23.296;2023-11-19T06:44:54;3.40;;;3.10;;
35891;SDS011;21993;42.672;23.296;2023-11-19T06:47:19;3.67;;;3.37;;
35891;SDS011;21993;42.672;23.296;2023-11-19T06:49:44;3.83;;;3.43;;
35891;SDS011;21993;42.672;23.296;2023-11-19T06:52:10;4.63;;;3.27;;
35891;SDS011;21993;42.672;23.296;2023-11-19T06:54:36;3.77;;;3.23;;
35891;SDS011;21993;42.672;23.296;2023-11-19T06:57:03;7.53;;;3.20;;
35891;SDS011;21993;42.672;23.296;2023-11-19T06:59:30;4.73;;;3.50;;
35891;SDS011;21993;42.672;23.296;2023-11-19T07:01:55;3.43;;;3.03;;
35891;SDS011;21993;42.672;23.296;2023-11-19T07:04:21;4.57;;;3.77;;
35891;SDS011;21993;42.672;23.296;2023-11-19T07:06:47;4.33;;;3.50;;
35891;SDS011;21993;42.672;23.296;2023-11-19T07:09:13;4.00;;;3.70;;
35891;SDS011;21993;42.672;23.296;2023-11-19T07:11:39;4.13;;;3.30;;
35891;SDS011;21993;42.672;23.296;2023-11-19T07:14:06;5.07;;;3.60;;
35891;SDS011;21993;42.672;23.296;2023-11-19T07:16:33;4.00;;;3.60;;
35891;SDS011;21993;42.672;23.296;2023-11-19T07:19:05;4.07;;;3.60;;
35891;SDS011;21993;42.672;23.296;2023-11-19T07:21:31;4.17;;;3.77;;
35891;SDS011;21993;42.672;23.296;2023-11-19T07:23:57;4.83;;;3.67;;
35891;SDS011;21993;42.672;23.296;2023-11-19T07:26:23;4.87;;;3.67;;
35891;SDS011;21993;42.672;23.296;2023-11-19T07:28:49;4.70;;;3.70;;
35891;SDS011;21993;42.672;23.296;2023-11-19T07:31:17;4.97;;;3.60;;
35891;SDS011;21993;42.672;23.296;2023-11-19T07:33:45;4.73;;;3.97;;
35891;SDS011;21993;42.672;23.296;2023-11-19T07:36:12;7.03;;;4.60;;
35891;SDS011;21993;42.672;23.296;2023-11-19T07:38:39;6.70;;;4.03;;
35891;SDS011;21993;42.672;23.296;2023-11-19T07:41:05;4.97;;;4.27;;
35891;SDS011;21993;42.672;23.296;2023-11-19T07:43:32;4.27;;;3.70;;
35891;SDS011;21993;42.672;23.296;2023-11-19T07:45:58;3.83;;;3.53;;
35891;SDS011;21993;42.672;23.296;2023-11-19T07:48:24;4.00;;;3.53;;
35891;SDS011;21993;42.672;23.296;2023-11-19T07:50:52;3.60;;;3.30;;
35891;SDS011;21993;42.672;23.296;2023-11-19T07:53:18;4.70;;;3.90;;
35891;SDS011;21993;42.672;23.296;2023-11-19T07:55:45;4.43;;;3.60;;
35891;SDS011;21993;42.672;23.296;2023-11-19T07:58:11;5.20;;;3.77;;
35891;SDS011;21993;42.672;23.296;2023-11-19T08:00:37;4.87;;;4.00;;
35891;SDS011;21993;42.672;23.296;2023-11-19T08:03:03;4.37;;;3.97;;
35891;SDS011;21993;42.672;23.296;2023-11-19T08:05:32;4.10;;;3.70;;
35891;SDS011;21993;42.672;23.296;2023-11-19T08:07:58;4.77;;;3.83;;
35891;SDS011;21993;42.672;23.296;2023-11-19T08:13:12;5.90;;;4.27;;
35891;SDS011;21993;42.672;23.296;2023-11-19T08:15:38;4.97;;;3.80;;
35891;SDS011;21993;42.672;23.296;2023-11-19T08:18:05;4.20;;;3.80;;
35891;SDS011;21993;42.672;23.296;2023-11-19T08:20:32;4.53;;;3.97;;
35891;SDS011;21993;42.672;23.296;2023-11-19T08:22:58;4.03;;;3.60;;
35891;SDS011;21993;42.672;23.296;2023-11-19T08:25:24;8.30;;;3.93;;
35891;SDS011;21993;42.672;23.296;2023-11-19T08:27:50;4.33;;;3.93;;
35891;SDS011;21993;42.672;23.296;2023-11-19T08:30:15;4.33;;;3.70;;
35891;SDS011;21993;42.672;23.296;2023-11-19T08:32:41;4.83;;;3.90;;
35891;SDS011;21993;42.672;23.296;2023-11-19T08:35:07;5.30;;;4.27;;
35891;SDS011;21993;42.672;23.296;2023-11-19T08:37:34;5.30;;;4.60;;
35891;SDS011;21993;42.672;23.296;2023-11-19T08:40:01;4.70;;;3.90;;
35891;SDS011;21993;42.672;23.296;2023-11-19T08:42:28;4.30;;;3.73;;
35891;SDS011;21993;42.672;23.296;2023-11-19T08:44:54;5.80;;;4.70;;
35891;SDS011;21993;42.672;23.296;2023-11-19T08:47:20;4.50;;;3.80;;
35891;SDS011;21993;42.672;23.296;2023-11-19T08:49:47;4.93;;;4.37;;
35891;SDS011;21993;42.672;23.296;2023-11-19T08:52:13;5.63;;;4.10;;
35891;SDS011;21993;42.672;23.296;2023-11-19T08:54:38;3.77;;;3.47;;
35891;SDS011;21993;42.672;23.296;2023-11-19T08:57:07;4.30;;;3.40;;
35891;SDS011;21993;42.672;23.296;2023-11-19T08:59:34;4.73;;;3.90;;
35891;SDS011;21993;42.672;23.296;2023-11-19T09:01:59;4.07;;;3.27;;
35891;SDS011;21993;42.672;23.296;2023-11-19T09:04:25;4.10;;;3.57;;
35891;SDS011;21993;42.672;23.296;2023-11-19T09:06:50;4.93;;;3.67;;
35891;SDS011;21993;42.672;23.296;2023-11-19T09:09:16;4.87;;;3.63;;
35891;SDS011;21993;42.672;23.296;2023-11-19T09:11:41;4.20;;;3.90;;
35891;SDS011;21993;42.672;23.296;2023-11-19T09:14:07;4.27;;;3.57;;
35891;SDS011;21993;42.672;23.296;2023-11-19T09:16:33;4.57;;;3.70;;
35891;SDS011;21993;42.672;23.296;2023-11-19T09:18:58;4.07;;;3.57;;
35891;SDS011;21993;42.672;23.296;2023-11-19T09:21:25;5.93;;;3.87;;
35891;SDS011;21993;42.672;23.296;2023-11-19T09:23:51;4.90;;;3.93;;
35891;SDS011;21993;42.672;23.296;2023-11-19T09:26:16;4.03;;;3.70;;
35891;SDS011;21993;42.672;23.296;2023-11-19T09:28:41;7.53;;;3.80;;
35891;SDS011;21993;42.672;23.296;2023-11-19T09:31:13;3.63;;;3.10;;
35891;SDS011;21993;42.672;23.296;2023-11-19T09:33:40;4.37;;;3.97;;
35891;SDS011;21993;42.672;23.296;2023-11-19T09:36:05;4.03;;;3.20;;
35891;SDS011;21993;42.672;23.296;2023-11-19T09:38:31;4.67;;;3.57;;
35891;SDS011;21993;42.672;23.296;2023-11-19T09:40:58;4.00;;;3.60;;
35891;SDS011;21993;42.672;23.296;2023-11-19T09:43:24;4.47;;;3.23;;
35891;SDS011;21993;42.672;23.296;2023-11-19T09:45:53;4.73;;;4.00;;
35891;SDS011;21993;42.672;23.296;2023-11-19T09:48:21;4.93;;;3.87;;
35891;SDS011;21993;42.672;23.296;2023-11-19T09:50:49;4.87;;;3.60;;
35891;SDS011;21993;42.672;23.296;2023-11-19T09:53:16;3.80;;;3.50;;
35891;SDS011;21993;42.672;23.296;2023-11-19T09:55:42;4.33;;;3.57;;
35891;SDS011;21993;42.672;23.296;2023-11-19T09:58:08;3.77;;;3.30;;
35891;SDS011;21993;42.672;23.296;2023-11-19T10:00:35;4.60;;;3.83;;
35891;SDS011;21993;42.672;23.296;2023-11-19T10:03:01;5.03;;;3.30;;
35891;SDS011;21993;42.672;23.296;2023-11-19T10:05:29;6.47;;;3.63;;
35891;SDS011;21993;42.672;23.296;2023-11-19T10:07:54;3.73;;;3.40;;
35891;SDS011;21993;42.672;23.296;2023-11-19T10:10:20;4.97;;;3.37;;
35891;SDS011;21993;42.672;23.296;2023-11-19T10:12:46;3.43;;;3.13;;
35891;SDS011;21993;42.672;23.296;2023-11-19T10:15:17;3.80;;;3.40;;
35891;SDS011;21993;42.672;23.296;2023-11-19T10:17:46;4.20;;;3.10;;
35891;SDS011;21993;42.672;23.296;2023-11-19T10:20:11;3.40;;;3.10;;
35891;SDS011;21993;42.672;23.296;2023-11-19T10:22:37;4.33;;;3.43;;
35891;SDS011;21993;42.672;23.296;2023-11-19T10:25:03;3.53;;;3.23;;
35891;SDS011;21993;42.672;23.296;2023-11-19T10:27:29;3.40;;;3.10;;
35891;SDS011;21993;42.672;23.296;2023-11-19T10:29:58;4.27;;;2.97;;
35891;SDS011;21993;42.672;23.296;2023-11-19T10:32:24;3.20;;;2.90;;
35891;SDS011;21993;42.672;23.296;2023-11-19T10:34:50;2.63;;;2.43;;
35891;SDS011;21993;42.672;23.296;2023-11-19T10:37:28;4.13;;;3.33;;
35891;SDS011;21993;42.672;23.296;2023-11-19T10:39:57;3.67;;;3.23;;
35891;SDS011;21993;42.672;23.296;2023-11-19T10:42:23;3.23;;;2.93;;
35891;SDS011;21993;42.672;23.296;2023-11-19T10:44:49;4.53;;;3.67;;
35891;SDS011;21993;42.672;23.296;2023-11-19T10:47:15;3.80;;;3.13;;
35891;SDS011;21993;42.672;23.296;2023-11-19T10:49:43;5.67;;;3.53;;
35891;SDS011;21993;42.672;23.296;2023-11-19T10:52:11;4.40;;;3.70;;
35891;SDS011;21993;42.672;23.296;2023-11-19T10:54:41;3.70;;;3.33;;
35891;SDS011;21993;42.672;23.296;2023-11-19T10:57:09;4.53;;;3.40;;
35891;SDS011;21993;42.672;23.296;2023-11-19T10:59:40;3.90;;;3.50;;
35891;SDS011;21993;42.672;23.296;2023-11-19T11:02:08;5.07;;;3.10;;
35891;SDS011;21993;42.672;23.296;2023-11-19T11:04:39;4.30;;;3.33;;
35891;SDS011;21993;42.672;23.296;2023-11-19T11:07:07;3.13;;;2.83;;
35891;SDS011;21993;42.672;23.296;2023-11-19T11:09:34;2.90;;;2.70;;
35891;SDS011;21993;42.672;23.296;2023-11-19T11:12:00;2.80;;;2.60;;
35891;SDS011;21993;42.672;23.296;2023-11-19T11:14:28;2.80;;;2.50;;
35891;SDS011;21993;42.672;23.296;2023-11-19T11:16:54;3.03;;;2.73;;
35891;SDS011;21993;42.672;23.296;2023-11-19T11:19:23;3.17;;;2.67;;
35891;SDS011;21993;42.672;23.296;2023-11-19T11:21:49;4.07;;;2.83;;
35891;SDS011;21993;42.672;23.296;2023-11-19T11:35:03;2.90;;;2.70;;
35891;SDS011;21993;42.672;23.296;2023-11-19T11:37:35;2.60;;;2.40;;
35891;SDS011;21993;42.672;23.296;2023-11-19T11:40:04;3.70;;;3.10;;
35891;SDS011;21993;42.672;23.296;2023-11-19T11:42:35;6.67;;;3.10;;
35891;SDS011;21993;42.672;23.296;2023-11-19T11:45:04;3.93;;;2.70;;
35891;SDS011;21993;42.672;23.296;2023-11-19T11:50:09;4.53;;;2.97;;
35891;SDS011;21993;42.672;23.296;2023-11-19T11:55:28;3.03;;;2.73;;
35891;SDS011;21993;42.672;23.296;2023-11-19T11:57:59;3.07;;;2.77;;
35891;SDS011;21993;42.672;23.296;2023-11-19T12:00:31;3.30;;;3.00;;
35891;SDS011;21993;42.672;23.296;2023-11-19T12:03:01;3.60;;;2.80;;
35891;SDS011;21993;42.672;23.296;2023-11-19T12:05:27;3.87;;;3.10;;
35891;SDS011;21993;42.672;23.296;2023-11-19T12:08:03;15.30;;;10.00;;
35891;SDS011;21993;42.672;23.296;2023-11-19T12:10:32;11.03;;;6.77;;
35891;SDS011;21993;42.672;23.296;2023-11-19T12:13:08;3.77;;;2.67;;
35891;SDS011;21993;42.672;23.296;2023-11-19T12:15:56;2.83;;;2.53;;
35891;SDS011;21993;42.672;23.296;2023-11-19T12:18:19;3.10;;;2.50;;
35891;SDS011;21993;42.672;23.296;2023-11-19T12:20:45;5.13;;;2.90;;
35891;SDS011;21993;42.672;23.296;2023-11-19T12:23:10;2.87;;;2.60;;
35891;SDS011;21993;42.672;23.296;2023-11-19T12:25:36;4.23;;;3.67;;
35891;SDS011;21993;42.672;23.296;2023-11-19T12:28:02;2.80;;;2.43;;
35891;SDS011;21993;42.672;23.296;2023-11-19T12:30:29;2.40;;;2.20;;
35891;SDS011;21993;42.672;23.296;2023-11-19T12:32:55;2.70;;;2.50;;
35891;SDS011;21993;42.672;23.296;2023-11-19T12:35:20;4.13;;;2.93;;
35891;SDS011;21993;42.672;23.296;2023-11-19T12:37:50;3.47;;;2.53;;
35891;SDS011;21993;42.672;23.296;2023-11-19T12:40:17;3.37;;;3.07;;
35891;SDS011;21993;42.672;23.296;2023-11-19T12:42:49;4.70;;;3.50;;
35891;SDS011;21993;42.672;23.296;2023-11-19T12:45:16;4.40;;;3.53;;
35891;SDS011;21993;42.672;23.296;2023-11-19T12:47:42;4.40;;;3.57;;
35891;SDS011;21993;42.672;23.296;2023-11-19T12:50:09;3.93;;;3.43;;
35891;SDS011;21993;42.672;23.296;2023-11-19T12:52:36;4.50;;;3.40;;
35891;SDS011;21993;42.672;23.296;2023-11-19T12:55:03;4.70;;;4.00;;
35891;SDS011;21993;42.672;23.296;2023-11-19T12:57:40;8.57;;;4.07;;
35891;SDS011;21993;42.672;23.296;2023-11-19T13:00:07;4.50;;;3.50;;
35891;SDS011;21993;42.672;23.296;2023-11-19T13:02:52;4.97;;;3.63;;
35891;SDS011;21993;42.672;23.296;2023-11-19T13:05:29;5.33;;;4.00;;
35891;SDS011;21993;42.672;23.296;2023-11-19T13:08:09;5.63;;;3.90;;
35891;SDS011;21993;42.672;23.296;2023-11-19T13:10:53;4.03;;;3.30;;
35891;SDS011;21993;42.672;23.296;2023-11-19T13:13:19;5.37;;;4.03;;
35891;SDS011;21993;42.672;23.296;2023-11-19T13:15:44;4.67;;;3.93;;
35891;SDS011;21993;42.672;23.296;2023-11-19T13:18:10;5.37;;;3.77;;
35891;SDS011;21993;42.672;23.296;2023-11-19T13:20:36;4.37;;;3.50;;
35891;SDS011;21993;42.672;23.296;2023-11-19T13:23:03;5.20;;;4.23;;
35891;SDS011;21993;42.672;23.296;2023-11-19T13:25:30;5.10;;;3.80;;
35891;SDS011;21993;42.672;23.296;2023-11-19T13:27:56;5.77;;;4.57;;
35891;SDS011;21993;42.672;23.296;2023-11-19T13:30:22;4.47;;;4.00;;
35891;SDS011;21993;42.672;23.296;2023-11-19T13:32:49;4.83;;;4.17;;
35891;SDS011;21993;42.672;23.296;2023-11-19T13:35:15;4.63;;;3.30;;
35891;SDS011;21993;42.672;23.296;2023-11-19T13:37:42;5.33;;;2.80;;
35891;SDS011;21993;42.672;23.296;2023-11-19T13:40:07;2.80;;;2.53;;
35891;SDS011;21993;42.672;23.296;2023-11-19T13:42:35;2.67;;;2.43;;
35891;SDS011;21993;42.672;23.296;2023-11-19T13:45:09;3.60;;;2.80;;
35891;SDS011;21993;42.672;23.296;2023-11-19T13:47:41;6.50;;;2.90;;
35891;SDS011;21993;42.672;23.296;2023-11-19T13:50:09;3.37;;;3.07;;
35891;SDS011;21993;42.672;23.296;2023-11-19T13:52:36;2.73;;;2.47;;
35891;SDS011;21993;42.672;23.296;2023-11-19T13:55:06;2.37;;;2.17;;
35891;SDS011;21993;42.672;23.296;2023-11-19T13:57:33;3.00;;;2.67;;
35891;SDS011;21993;42.672;23.296;2023-11-19T14:00:05;3.20;;;2.90;;
35891;SDS011;21993;42.672;23.296;2023-11-19T14:05:57;3.07;;;2.60;;
35891;SDS011;21993;42.672;23.296;2023-11-19T14:08:23;3.63;;;2.27;;
35891;SDS011;21993;42.672;23.296;2023-11-19T14:10:48;2.57;;;2.10;;
35891;SDS011;21993;42.672;23.296;2023-11-19T14:16:36;3.83;;;3.03;;
35891;SDS011;21993;42.672;23.296;2023-11-19T14:19:02;3.40;;;2.73;;
35891;SDS011;21993;42.672;23.296;2023-11-19T14:21:28;3.40;;;2.90;;
35891;SDS011;21993;42.672;23.296;2023-11-19T14:23:53;3.40;;;3.07;;
35891;SDS011;21993;42.672;23.296;2023-11-19T14:26:19;5.47;;;3.40;;
35891;SDS011;21993;42.672;23.296;2023-11-19T14:28:44;4.90;;;4.20;;
35891;SDS011;21993;42.672;23.296;2023-11-19T14:31:10;6.23;;;4.23;;
35891;SDS011;21993;42.672;23.296;2023-11-19T14:33:35;10.87;;;3.97;;
35891;SDS011;21993;42.672;23.296;2023-11-19T14:36:03;6.60;;;3.93;;
35891;SDS011;21993;42.672;23.296;2023-11-19T14:38:29;5.00;;;3.93;;
35891;SDS011;21993;42.672;23.296;2023-11-19T14:40:54;8.57;;;4.43;;
35891;SDS011;21993;42.672;23.296;2023-11-19T14:43:20;6.13;;;4.70;;
35891;SDS011;21993;42.672;23.296;2023-11-19T14:45:45;4.97;;;3.93;;
35891;SDS011;21993;42.672;23.296;2023-11-19T14:48:11;5.80;;;4.23;;
35891;SDS011;21993;42.672;23.296;2023-11-19T14:50:36;8.17;;;4.30;;
35891;SDS011;21993;42.672;23.296;2023-11-19T14:53:02;4.93;;;4.30;;
35891;SDS011;21993;42.672;23.296;2023-11-19T14:55:27;7.73;;;4.50;;
35891;SDS011;21993;42.672;23.296;2023-11-19T14:57:53;5.73;;;4.40;;
35891;SDS011;21993;42.672;23.296;2023-11-19T15:00:18;6.40;;;4.43;;